Main page
METAR-TAF:

METAR-TAF

Airports :

Cherbourg – Maupertus Airport

Cherbourg, France

latitude: 49-39N, longitude: 001-28W, elevation: 138 m

Current weather observation

The report was made 33 minutes ago, at 22:00 UTC
Wind 7 kt from the West/Northwest
Temperature 4°C
Humidity 81%
Pressure 1026 hPa
Visibility 10 km or more

METAR: LFRC 112200Z AUTO 30007KT 9999 FEW023/// ///TCU 04/01 Q1026

Time: 00:33 (22:33 UTC)

Forecast

The report was made 8 hours and 33 minutes ago, at 14:00 UTC
Forecast valid from 11 at 15 UTC to 11 at 24 UTC
Wind 10 kt from the North
Visibility 10 km or more
Scattered clouds at a height of 3000 ft
Becoming
from 11 at 17 UTC to 11 at 19 UTC
Wind 10 kt from the West/Northwest
Becoming
from 11 at 21 UTC to 11 at 23 UTC
Wind 4 kt from variable directions

TAF: LFRC 111400Z 1115/1124 36010KT 9999 SCT030 BECMG 1117/1119 30010KT BECMG 1121/1123 VRB04KT

Weather observations and forecasts of more than 4000 airports (METAR and TAF reports).

The available stations are represented by yellow and red dots on the map.

Hover mouse over dot to see the name of the station.

Then click to see weather observations and forecasts.

To change the map : click on the green buttons with a black cross to zoom in, on the green button with a dash to zoom out, or on the green arrows for adjacent maps.


METAR-TAF: